createdAt,value
2019-06-01T00:00:37.913Z,78.38
2019-06-01T00:02:30.512Z,78.86
2019-06-01T00:03:30.516Z,78.96
2019-06-01T00:05:23.440Z,78.96
2019-06-01T00:06:23.446Z,79.05
2019-06-01T00:08:16.369Z,79.24
2019-06-01T00:09:16.388Z,79.34
2019-06-01T00:11:09.300Z,79.78
2019-06-01T00:12:09.309Z,79.88
2019-06-01T00:14:02.228Z,80.07
2019-06-01T00:15:02.237Z,80.16
2019-06-01T00:16:55.154Z,80.35
2019-06-01T00:17:55.166Z,80.26
2019-06-01T00:19:48.286Z,80.74
2019-06-01T00:20:48.613Z,80.26
2019-06-01T00:22:41.252Z,80.45
2019-06-01T00:23:42.360Z,81.51
2019-06-01T00:25:34.022Z,80.74
2019-06-01T00:26:34.018Z,80.74
2019-06-01T00:28:26.882Z,81.02
2019-06-01T00:29:26.889Z,81.22
2019-06-01T00:31:19.806Z,80.93
2019-06-01T00:32:19.820Z,80.93
2019-06-01T00:34:12.741Z,81.02
2019-06-01T00:35:12.750Z,81.31
2019-06-01T00:37:05.670Z,81.08
2019-06-01T00:38:05.676Z,80.89
2019-06-01T00:39:58.602Z,81.95
2019-06-01T00:40:58.607Z,81.98
2019-06-01T00:42:52.437Z,82.23
2019-06-01T00:43:52.487Z,82.52
2019-06-01T00:45:44.555Z,82.32
2019-06-01T00:46:44.546Z,82.42
2019-06-01T00:48:37.390Z,82.81
2019-06-01T00:49:37.397Z,82.81
2019-06-01T00:51:30.317Z,82.62
2019-06-01T00:52:30.328Z,82.62
2019-06-01T00:54:23.251Z,82.71
2019-06-01T00:55:23.252Z,82.71
2019-06-01T00:57:16.166Z,82.81
2019-06-01T00:58:16.177Z,82.71
2019-06-01T01:00:09.101Z,83.38
2019-06-01T01:01:09.108Z,83.48
2019-06-01T01:03:02.030Z,83.48
2019-06-01T01:04:02.043Z,83.38
2019-06-01T01:05:54.971Z,83.29
2019-06-01T01:06:54.969Z,83.44
2019-06-01T01:08:48.979Z,83.29
2019-06-01T01:09:48.809Z,83.25
2019-06-01T01:11:40.823Z,83.58
2019-06-01T01:12:40.850Z,83.53
2019-06-01T01:14:33.745Z,83.82
2019-06-01T01:15:33.763Z,84.01
2019-06-01T01:17:26.672Z,83.63
2019-06-01T01:18:26.672Z,83.63
2019-06-01T01:20:19.598Z,83.63
2019-06-01T01:21:19.605Z,84.20
2019-06-01T01:23:12.524Z,83.82
2019-06-01T01:24:12.537Z,83.44
2019-06-01T01:26:05.479Z,84.20
2019-06-01T01:27:05.458Z,84.20
2019-06-01T01:28:58.385Z,83.53
2019-06-01T01:29:58.385Z,84.30
2019-06-01T01:31:51.304Z,84.39
2019-06-01T01:32:51.698Z,84.11
2019-06-01T01:34:44.240Z,83.92
2019-06-01T01:35:44.245Z,84.39
2019-06-01T01:37:37.214Z,84.30
2019-06-01T01:38:37.174Z,83.82
2019-06-01T01:40:30.096Z,84.20
2019-06-01T01:41:30.102Z,83.92
2019-06-01T01:43:23.014Z,83.82
2019-06-01T01:44:23.030Z,83.87
2019-06-01T01:46:15.951Z,83.30
2019-06-01T01:47:15.960Z,83.59
2019-06-01T01:49:08.881Z,83.68
2019-06-01T01:50:08.888Z,83.59
2019-06-01T01:52:01.802Z,84.06
2019-06-01T01:53:03.202Z,83.68
2019-06-01T01:54:54.791Z,84.16
2019-06-01T01:55:55.205Z,84.35
2019-06-01T01:57:47.655Z,84.35
2019-06-01T01:58:47.669Z,84.55
2019-06-01T02:00:40.590Z,85.12
2019-06-01T02:01:40.596Z,84.92
2019-06-01T02:03:33.509Z,85.41
2019-06-01T02:04:33.521Z,85.12
2019-06-01T02:06:29.177Z,85.31
2019-06-01T02:07:26.939Z,85.55
2019-06-01T02:09:19.876Z,84.83
2019-06-01T02:10:19.869Z,84.88
2019-06-01T02:12:12.779Z,84.69
2019-06-01T02:13:12.791Z,84.69
2019-06-01T02:15:05.722Z,84.69
2019-06-01T02:16:05.717Z,85.17
2019-06-01T02:17:58.637Z,85.55
2019-06-01T02:18:58.887Z,85.55
2019-06-01T02:20:52.261Z,85.75
2019-06-01T02:21:52.363Z,85.75
2019-06-01T02:23:44.490Z,85.75
2019-06-01T02:24:44.496Z,85.17
2019-06-01T02:26:37.415Z,85.17
2019-06-01T02:27:37.420Z,85.08
2019-06-01T02:29:30.348Z,85.17
2019-06-01T02:30:30.362Z,85.46
2019-06-01T02:32:23.266Z,84.88
2019-06-01T02:33:23.277Z,85.08
2019-06-01T02:35:16.194Z,85.08
2019-06-01T02:36:16.201Z,84.88
2019-06-01T02:38:09.118Z,85.17
2019-06-01T02:39:09.130Z,85.27
2019-06-01T02:41:03.262Z,85.27
2019-06-01T02:42:03.443Z,84.98
2019-06-01T02:43:54.960Z,84.41
2019-06-01T02:44:55.162Z,84.50
2019-06-01T02:46:47.897Z,84.69
2019-06-01T02:47:47.905Z,84.88
2019-06-01T02:49:40.826Z,84.94
2019-06-01T02:50:40.833Z,85.08
2019-06-01T02:52:33.748Z,85.61
2019-06-01T02:53:33.757Z,85.51
2019-06-01T02:55:26.678Z,86.08
2019-06-01T02:56:26.681Z,86.57
2019-06-01T02:58:19.602Z,86.66
2019-06-01T02:59:19.610Z,86.66
2019-06-01T03:01:12.529Z,86.66
2019-06-01T03:02:14.855Z,86.57
2019-06-01T03:04:05.509Z,87.23
2019-06-01T03:05:05.588Z,86.94
2019-06-01T03:06:59.511Z,87.14
2019-06-01T03:07:59.359Z,86.76
2019-06-01T03:09:51.303Z,86.85
2019-06-01T03:10:51.309Z,87.14
2019-06-01T03:12:44.716Z,86.66
2019-06-01T03:13:44.728Z,86.57
2019-06-01T03:15:37.652Z,86.66
2019-06-01T03:16:40.049Z,86.94
2019-06-01T03:18:30.572Z,86.37
2019-06-01T03:19:30.584Z,86.08
2019-06-01T03:21:23.513Z,85.89
2019-06-01T03:22:23.504Z,85.71
2019-06-01T03:24:16.417Z,85.99
2019-06-01T03:25:16.431Z,85.71
2019-06-01T03:27:09.344Z,85.89
2019-06-01T03:28:09.348Z,85.99
2019-06-01T03:30:05.288Z,85.80
2019-06-01T03:31:03.507Z,85.41
2019-06-01T03:32:55.189Z,85.89
2019-06-01T03:33:55.196Z,85.51
2019-06-01T03:35:48.113Z,85.80
2019-06-01T03:36:48.127Z,85.89
2019-06-01T03:38:41.034Z,85.65
2019-06-01T03:39:41.043Z,85.84
2019-06-01T03:41:33.962Z,85.46
2019-06-01T03:42:33.967Z,85.65
2019-06-01T03:44:26.880Z,85.27
2019-06-01T03:45:26.905Z,85.27
2019-06-01T03:47:19.815Z,85.17
2019-06-01T03:48:19.812Z,84.92
2019-06-01T03:50:13.257Z,84.58
2019-06-01T03:51:12.736Z,83.72
2019-06-01T03:53:05.868Z,83.72
2019-06-01T03:54:06.875Z,82.57
2019-06-01T03:55:58.580Z,80.70
2019-06-01T03:56:58.584Z,80.60
2019-06-01T03:58:51.503Z,80.35
2019-06-01T03:59:51.511Z,79.39
2019-06-01T04:01:47.052Z,78.28
2019-06-01T04:02:44.441Z,78.19
2019-06-01T04:04:37.359Z,76.56
2019-06-01T04:05:37.371Z,76.07
2019-06-01T04:07:30.785Z,75.63
2019-06-01T04:08:30.793Z,74.87
2019-06-01T04:10:23.721Z,74.23
2019-06-01T04:11:23.722Z,73.75
2019-06-01T04:13:16.638Z,72.44
2019-06-01T04:14:16.656Z,71.71
2019-06-01T04:16:09.996Z,70.11
2019-06-01T04:17:10.222Z,69.53
2019-06-01T04:19:03.710Z,68.96
2019-06-01T04:20:03.861Z,68.76
2019-06-01T04:21:55.442Z,68.67
2019-06-01T04:22:55.453Z,68.38
2019-06-01T04:24:48.368Z,67.99
2019-06-01T04:25:48.383Z,68.19
2019-06-01T04:27:41.309Z,67.74
2019-06-01T04:28:41.318Z,68.22
2019-06-01T04:30:34.248Z,66.91
2019-06-01T04:31:34.255Z,66.65
2019-06-01T04:33:27.174Z,65.30
2019-06-01T04:34:27.191Z,65.11
2019-06-01T04:36:20.190Z,63.79
2019-06-01T04:37:20.127Z,63.41
2019-06-01T04:39:13.800Z,62.76
2019-06-01T04:40:13.672Z,63.12
2019-06-01T04:42:05.986Z,62.76
2019-06-01T04:43:06.009Z,62.28
2019-06-01T04:44:58.913Z,61.80
2019-06-01T04:45:58.930Z,62.09
2019-06-01T04:47:51.856Z,62.96
2019-06-01T04:48:51.868Z,61.90
2019-06-01T04:50:44.793Z,62.09
2019-06-01T04:51:44.806Z,62.57
2019-06-01T04:53:37.726Z,62.76
2019-06-01T04:54:37.745Z,62.86
2019-06-01T04:56:30.671Z,61.54
2019-06-01T04:57:30.682Z,61.35
2019-06-01T04:59:23.606Z,62.02
2019-06-01T05:00:27.657Z,61.06
2019-06-01T05:02:16.551Z,61.09
2019-06-01T05:03:16.563Z,60.13
2019-06-01T05:05:09.487Z,59.86
2019-06-01T05:06:09.505Z,59.58
2019-06-01T05:08:02.432Z,58.28
2019-06-01T05:09:02.445Z,57.70
2019-06-01T05:10:55.371Z,56.76
2019-06-01T05:11:55.386Z,56.25
2019-06-01T05:13:48.317Z,57.93
2019-06-01T05:14:48.333Z,58.90
2019-06-01T05:16:41.262Z,60.28
2019-06-01T05:17:41.277Z,61.83
2019-06-01T05:19:34.198Z,63.34
2019-06-01T05:20:34.217Z,63.50
2019-06-01T05:22:27.145Z,65.01
2019-06-01T05:23:27.156Z,65.69
2019-06-01T05:25:20.083Z,66.85
2019-06-01T05:26:20.099Z,66.65
2019-06-01T05:28:13.316Z,67.23
2019-06-01T05:29:13.563Z,66.49
2019-06-01T05:31:08.860Z,65.24
2019-06-01T05:32:05.980Z,64.31
2019-06-01T05:33:58.911Z,63.57
2019-06-01T05:34:58.920Z,62.15
2019-06-01T05:36:51.847Z,60.44
2019-06-01T05:37:51.860Z,59.89
2019-06-01T05:39:44.788Z,59.92
2019-06-01T05:40:44.814Z,59.83
2019-06-01T05:42:37.733Z,58.04
2019-06-01T05:43:37.748Z,57.46
2019-06-01T05:45:30.678Z,56.70
2019-06-01T05:46:30.693Z,55.85
2019-06-01T05:48:28.488Z,55.68
2019-06-01T05:49:23.645Z,55.20
2019-06-01T05:51:18.518Z,53.61
2019-06-01T05:52:16.731Z,53.41
2019-06-01T05:54:10.439Z,53.05
2019-06-01T05:55:10.327Z,51.81
2019-06-01T05:57:02.469Z,50.51
2019-06-01T05:58:02.491Z,50.12
2019-06-01T05:59:55.424Z,49.07
2019-06-01T06:00:55.441Z,48.68
2019-06-01T06:02:48.374Z,47.93
2019-06-01T06:03:48.392Z,48.71
2019-06-01T06:05:41.328Z,47.15
2019-06-01T06:06:41.347Z,46.98
2019-06-01T06:08:34.286Z,47.08
2019-06-01T06:09:34.338Z,47.37
2019-06-01T06:11:27.249Z,47.54
2019-06-01T06:12:27.262Z,47.15
2019-06-01T06:14:22.565Z,47.83
2019-06-01T06:15:21.841Z,48.51
2019-06-01T06:17:16.199Z,47.91
2019-06-01T06:18:14.171Z,48.30
2019-06-01T06:20:07.112Z,48.68
2019-06-01T06:21:07.127Z,49.05
2019-06-01T06:23:00.068Z,47.81
2019-06-01T06:24:00.083Z,48.97
2019-06-01T06:25:53.017Z,48.78
2019-06-01T06:26:53.046Z,48.88
2019-06-01T06:28:45.983Z,47.61
2019-06-01T06:29:46.003Z,47.61
2019-06-01T06:31:38.945Z,49.15
2019-06-01T06:32:38.962Z,48.97
2019-06-01T06:34:31.905Z,49.37
2019-06-01T06:35:31.927Z,49.00
2019-06-01T06:37:24.874Z,48.13
2019-06-01T06:38:24.883Z,49.02
2019-06-01T06:40:18.073Z,46.13
2019-06-01T06:41:18.256Z,46.61
2019-06-01T06:43:19.198Z,46.83
2019-06-01T06:44:10.809Z,44.89
2019-06-01T06:46:03.748Z,45.95
2019-06-01T06:47:03.771Z,45.20
2019-06-01T06:48:56.714Z,44.69
2019-06-01T06:49:56.736Z,45.18
2019-06-01T06:51:49.689Z,44.89
2019-06-01T06:52:49.745Z,45.67
2019-06-01T06:54:42.649Z,45.64
2019-06-01T06:55:42.668Z,44.96
2019-06-01T06:57:35.608Z,45.74
2019-06-01T06:58:35.630Z,45.64
2019-06-01T07:00:28.569Z,45.64
2019-06-01T07:01:28.600Z,46.03
2019-06-01T07:03:23.105Z,45.35
2019-06-01T07:04:23.159Z,45.94
2019-06-01T07:06:14.994Z,44.86
2019-06-01T07:07:15.020Z,45.06
2019-06-01T07:09:07.982Z,44.55
2019-06-01T07:10:08.005Z,44.84
2019-06-01T07:12:00.993Z,46.18
2019-06-01T07:13:00.955Z,45.98
2019-06-01T07:14:53.905Z,47.25
2019-06-01T07:15:53.923Z,45.87
2019-06-01T07:17:47.095Z,47.42
2019-06-01T07:18:46.973Z,47.23
2019-06-01T07:20:39.850Z,46.94
2019-06-01T07:21:39.871Z,47.15
2019-06-01T07:23:32.805Z,46.47
2019-06-01T07:24:32.844Z,46.08
2019-06-01T07:26:26.250Z,45.50
2019-06-01T07:27:26.162Z,46.47
2019-06-01T07:29:19.943Z,47.05
2019-06-01T07:30:19.979Z,45.40
2019-06-01T07:32:11.691Z,47.03
2019-06-01T07:33:11.714Z,47.01
2019-06-01T07:35:04.646Z,47.13
2019-06-01T07:36:04.677Z,46.81
2019-06-01T07:37:57.610Z,48.08
2019-06-01T07:38:57.629Z,49.24
2019-06-01T07:40:50.572Z,48.95
2019-06-01T07:41:50.597Z,48.83
2019-06-01T07:43:43.523Z,49.24
2019-06-01T07:44:43.538Z,49.02
2019-06-01T07:46:36.469Z,49.02
2019-06-01T07:47:36.492Z,49.99
2019-06-01T07:49:29.434Z,49.12
2019-06-01T07:50:29.472Z,48.73
2019-06-01T07:52:22.492Z,50.38
2019-06-01T07:53:24.047Z,49.41
2019-06-01T07:55:15.328Z,49.51
2019-06-01T07:56:15.352Z,50.48
2019-06-01T07:58:08.330Z,48.05
2019-06-01T07:59:08.326Z,48.03
2019-06-01T08:01:01.316Z,48.69
2019-06-01T08:02:01.367Z,49.34
2019-06-01T08:03:54.334Z,51.06
2019-06-01T08:04:54.801Z,50.96
2019-06-01T08:06:48.759Z,53.29
2019-06-01T08:07:47.215Z,53.39
2019-06-01T08:09:40.146Z,52.51
2019-06-01T08:10:40.168Z,51.93
2019-06-01T08:12:33.128Z,51.86
2019-06-01T08:13:35.491Z,52.42
2019-06-01T08:15:26.098Z,51.28
2019-06-01T08:16:26.119Z,51.25
2019-06-01T08:18:19.059Z,51.54
2019-06-01T08:19:19.084Z,51.74
2019-06-01T08:21:11.999Z,52.29
2019-06-01T08:22:12.057Z,53.26
2019-06-01T08:24:05.123Z,54.06
2019-06-01T08:25:05.118Z,53.77
2019-06-01T08:26:58.065Z,52.22
2019-06-01T08:27:58.073Z,52.58
2019-06-01T08:29:50.994Z,52.97
2019-06-01T08:30:51.011Z,53.39
2019-06-01T08:32:43.947Z,53.99
2019-06-01T08:33:43.964Z,52.44
2019-06-01T08:35:36.890Z,52.64
2019-06-01T08:36:36.950Z,52.47
2019-06-01T08:38:29.845Z,53.15
2019-06-01T08:39:29.855Z,51.33
2019-06-01T08:41:23.374Z,48.97
2019-06-01T08:42:23.413Z,49.27
2019-06-01T08:44:15.737Z,50.46
2019-06-01T08:45:15.757Z,51.62
2019-06-01T08:47:08.686Z,51.53
2019-06-01T08:48:08.704Z,52.20
2019-06-01T08:50:01.645Z,49.77
2019-06-01T08:51:01.669Z,49.19
2019-06-01T08:52:54.610Z,48.69
2019-06-01T08:53:54.609Z,49.37
2019-06-01T08:55:47.530Z,51.11
2019-06-01T08:56:47.550Z,50.24
2019-06-01T08:58:41.500Z,50.16
2019-06-01T08:59:41.513Z,51.14
2019-06-01T09:01:35.572Z,50.84
2019-06-01T09:02:35.412Z,49.90
2019-06-01T09:04:28.851Z,49.80
2019-06-01T09:05:29.863Z,50.09
2019-06-01T09:07:21.299Z,49.17
2019-06-01T09:08:23.692Z,49.58
2019-06-01T09:10:14.450Z,51.33
2019-06-01T09:11:14.264Z,49.39
2019-06-01T09:13:07.202Z,50.56
2019-06-01T09:14:07.218Z,51.04
2019-06-01T09:16:01.102Z,49.77
2019-06-01T09:17:00.205Z,50.26
2019-06-01T09:18:53.129Z,49.71
2019-06-01T09:19:53.145Z,49.02
2019-06-01T09:21:46.073Z,49.41
2019-06-01T09:22:48.127Z,49.41
2019-06-01T09:24:39.028Z,50.58
2019-06-01T09:25:39.046Z,49.34
2019-06-01T09:27:32.112Z,49.82
2019-06-01T09:28:32.155Z,48.85
2019-06-01T09:30:25.898Z,47.59
2019-06-01T09:31:26.230Z,47.49
2019-06-01T09:33:17.887Z,49.73
2019-06-01T09:34:17.904Z,49.95
2019-06-01T09:36:10.831Z,47.61
2019-06-01T09:37:10.852Z,46.94
2019-06-01T09:39:03.786Z,47.81
2019-06-01T09:40:03.804Z,47.71
2019-06-01T09:41:56.731Z,47.13
2019-06-01T09:42:56.750Z,47.71
2019-06-01T09:44:49.709Z,47.30
2019-06-01T09:45:52.943Z,47.49
2019-06-01T09:47:42.641Z,47.20
2019-06-01T09:48:42.649Z,47.28
2019-06-01T09:50:35.578Z,49.12
2019-06-01T09:51:35.820Z,49.99
2019-06-01T09:53:29.350Z,49.71
2019-06-01T09:54:29.457Z,49.39
2019-06-01T09:56:21.478Z,49.58
2019-06-01T09:57:21.511Z,48.71
2019-06-01T09:59:14.436Z,51.45
2019-06-01T10:00:14.455Z,49.61
2019-06-01T10:02:07.385Z,48.08
2019-06-01T10:03:07.394Z,47.98
2019-06-01T10:05:01.232Z,49.24
2019-06-01T10:06:02.186Z,48.95
2019-06-01T10:07:53.275Z,49.46
2019-06-01T10:08:53.286Z,49.95
2019-06-01T10:10:46.219Z,49.66
2019-06-01T10:11:46.241Z,48.88
2019-06-01T10:13:39.176Z,48.61
2019-06-01T10:14:39.419Z,48.90
2019-06-01T10:16:34.410Z,48.61
2019-06-01T10:17:33.629Z,47.93
2019-06-01T10:19:26.064Z,47.15
2019-06-01T10:20:26.079Z,48.03
2019-06-01T10:22:19.012Z,47.74
2019-06-01T10:23:19.038Z,47.64
2019-06-01T10:25:11.961Z,47.61
2019-06-01T10:26:11.976Z,48.95
2019-06-01T10:28:04.911Z,49.34
2019-06-01T10:29:04.927Z,50.12
2019-06-01T10:30:57.855Z,49.95
2019-06-01T10:31:57.874Z,48.68
2019-06-01T10:33:51.952Z,48.78
2019-06-01T10:34:50.821Z,47.61
2019-06-01T10:36:43.750Z,47.49
2019-06-01T10:37:43.770Z,47.78
2019-06-01T10:39:37.233Z,49.92
2019-06-01T10:40:37.618Z,50.02
2019-06-01T10:42:29.647Z,48.88
2019-06-01T10:43:29.670Z,49.85
2019-06-01T10:45:22.600Z,49.56
2019-06-01T10:46:22.616Z,49.68
2019-06-01T10:48:15.554Z,48.13
2019-06-01T10:49:15.565Z,47.05
2019-06-01T10:51:08.494Z,47.23
2019-06-01T10:52:08.518Z,47.03
2019-06-01T10:54:01.449Z,49.76
2019-06-01T10:55:01.467Z,48.88
2019-06-01T10:56:54.402Z,47.71
2019-06-01T10:57:54.418Z,47.88
2019-06-01T10:59:47.852Z,47.91
2019-06-01T11:00:51.062Z,47.13
2019-06-01T11:02:40.952Z,48.68
2019-06-01T11:03:40.822Z,48.71
2019-06-01T11:05:34.905Z,46.96
2019-06-01T11:06:38.849Z,46.08
2019-06-01T11:08:26.683Z,46.08
2019-06-01T11:09:26.704Z,45.89
2019-06-01T11:11:19.626Z,47.64
2019-06-01T11:12:19.651Z,46.88
2019-06-01T11:14:12.584Z,46.98
2019-06-01T11:15:12.599Z,47.17
2019-06-01T11:17:06.030Z,45.62
2019-06-01T11:18:06.062Z,46.20
2019-06-01T11:19:58.978Z,46.40
2019-06-01T11:20:58.991Z,47.08
2019-06-01T11:22:51.917Z,47.10
2019-06-01T11:23:51.940Z,47.20
2019-06-01T11:25:44.877Z,47.00
2019-06-01T11:26:44.914Z,47.30
2019-06-01T11:28:38.340Z,47.10
2019-06-01T11:29:44.128Z,46.05
2019-06-01T11:31:31.777Z,44.40
2019-06-01T11:32:31.800Z,44.89
2019-06-01T11:34:25.758Z,45.57
2019-06-01T11:35:25.737Z,44.89
2019-06-01T11:37:18.382Z,45.28
2019-06-01T11:38:18.402Z,45.76
2019-06-01T11:40:11.336Z,46.34
2019-06-01T11:41:11.355Z,45.37
2019-06-01T11:43:04.776Z,43.43
2019-06-01T11:44:04.799Z,43.52
2019-06-01T11:45:57.736Z,44.98
2019-06-01T11:46:57.749Z,45.18
2019-06-01T11:48:50.709Z,45.35
2019-06-01T11:49:50.718Z,45.57
2019-06-01T11:51:45.155Z,44.86
2019-06-01T11:52:45.330Z,45.64
2019-06-01T11:54:37.129Z,46.13
2019-06-01T11:55:37.118Z,46.42
2019-06-01T11:57:30.044Z,45.37
2019-06-01T11:58:30.064Z,45.67
2019-06-01T12:00:23.020Z,44.01
2019-06-01T12:01:23.011Z,45.06
2019-06-01T12:03:15.948Z,44.67
2019-06-01T12:04:15.966Z,45.45
2019-06-01T12:06:09.395Z,46.13
2019-06-01T12:07:17.667Z,45.45
2019-06-01T12:09:02.839Z,45.84
2019-06-01T12:10:02.854Z,46.32
2019-06-01T12:11:55.782Z,46.25
2019-06-01T12:12:55.803Z,45.86
2019-06-01T12:14:49.232Z,45.76
2019-06-01T12:15:49.247Z,45.78
2019-06-01T12:17:42.831Z,45.98
2019-06-01T12:18:42.665Z,45.29
2019-06-01T12:20:36.646Z,44.71
2019-06-01T12:21:37.069Z,43.84
2019-06-01T12:23:28.581Z,45.32
2019-06-01T12:24:28.598Z,45.61
2019-06-01T12:26:22.025Z,43.66
2019-06-01T12:27:22.067Z,44.73
2019-06-01T12:29:15.473Z,43.57
2019-06-01T12:30:15.490Z,43.76
2019-06-01T12:32:08.916Z,43.57
2019-06-01T12:33:08.938Z,42.28
2019-06-01T12:35:03.424Z,42.86
2019-06-01T12:36:02.382Z,41.99
2019-06-01T12:38:06.078Z,44.59
2019-06-01T12:38:55.827Z,44.40
2019-06-01T12:40:48.769Z,42.96
2019-06-01T12:41:48.783Z,43.84
2019-06-01T12:43:43.543Z,43.54
2019-06-01T12:44:42.231Z,43.44
2019-06-01T12:46:35.163Z,43.37
2019-06-01T12:47:35.182Z,43.85
2019-06-01T12:49:28.114Z,42.88
2019-06-01T12:50:28.134Z,43.66
2019-06-01T12:52:21.063Z,40.93
2019-06-01T12:53:21.082Z,41.81
2019-06-01T12:55:14.020Z,42.79
2019-06-01T12:56:14.035Z,41.99
2019-06-01T12:58:06.967Z,44.42
2019-06-01T12:59:06.989Z,43.85
2019-06-01T13:01:02.760Z,44.32
2019-06-01T13:01:59.944Z,43.57
2019-06-01T13:03:52.896Z,43.08
2019-06-01T13:04:53.267Z,42.49
2019-06-01T13:06:50.312Z,42.00
2019-06-01T13:07:57.548Z,42.59
2019-06-01T13:09:38.793Z,42.30
2019-06-01T13:10:38.807Z,41.52
2019-06-01T13:12:31.746Z,42.10
2019-06-01T13:13:31.767Z,42.20
2019-06-01T13:15:24.698Z,40.93
2019-06-01T13:16:24.722Z,42.20
2019-06-01T13:18:17.654Z,42.22
2019-06-01T13:19:17.672Z,42.10
2019-06-01T13:21:10.610Z,42.22
2019-06-01T13:22:10.623Z,42.22
2019-06-01T13:24:03.564Z,40.56
2019-06-01T13:25:03.591Z,39.98
2019-06-01T13:26:56.510Z,40.66
2019-06-01T13:27:56.584Z,40.56
2019-06-01T13:29:50.205Z,40.06
2019-06-01T13:30:50.987Z,40.83
2019-06-01T13:32:42.580Z,43.10
2019-06-01T13:33:42.441Z,43.29
2019-06-01T13:35:35.383Z,41.35
2019-06-01T13:36:35.397Z,42.41
2019-06-01T13:38:28.329Z,40.27
2019-06-01T13:39:28.351Z,40.45
2019-06-01T13:41:21.288Z,39.76
2019-06-01T13:42:21.304Z,40.25
2019-06-01T13:44:14.239Z,41.42
2019-06-01T13:45:14.260Z,39.08
2019-06-01T13:47:07.219Z,40.35
2019-06-01T13:48:07.213Z,41.52
2019-06-01T13:50:00.579Z,39.76
2019-06-01T13:51:00.594Z,42.00
2019-06-01T13:52:54.201Z,39.96
2019-06-01T13:53:54.641Z,38.98
2019-06-01T13:55:46.496Z,39.28
2019-06-01T13:56:46.832Z,39.47
2019-06-01T13:58:39.439Z,39.16
2019-06-01T13:59:39.452Z,40.81
2019-06-01T14:01:32.389Z,41.89
2019-06-01T14:02:32.402Z,40.52
2019-06-01T14:04:25.339Z,41.99
2019-06-01T14:05:25.359Z,43.05
2019-06-01T14:07:18.288Z,41.91
2019-06-01T14:08:28.353Z,41.71
2019-06-01T14:10:11.307Z,40.76
2019-06-01T14:11:11.262Z,40.37
2019-06-01T14:13:05.426Z,40.47
2019-06-01T14:14:04.217Z,39.88
2019-06-01T14:15:57.149Z,39.88
2019-06-01T14:16:57.167Z,38.79
2019-06-01T14:18:50.115Z,39.57
2019-06-01T14:19:50.132Z,38.71
2019-06-01T14:21:43.081Z,39.18
2019-06-01T14:22:43.085Z,40.16
2019-06-01T14:24:36.031Z,40.37
2019-06-01T14:25:36.044Z,39.76
2019-06-01T14:27:28.979Z,39.59
2019-06-01T14:28:29.001Z,38.90
2019-06-01T14:30:24.180Z,38.22
2019-06-01T14:31:21.953Z,39.78
2019-06-01T14:33:14.885Z,39.49
2019-06-01T14:34:14.912Z,40.76
2019-06-01T14:36:07.862Z,39.90
2019-06-01T14:37:07.865Z,40.09
2019-06-01T14:39:00.803Z,39.61
2019-06-01T14:40:00.813Z,38.22
2019-06-01T14:41:53.749Z,38.92
2019-06-01T14:42:53.767Z,39.02
2019-06-01T14:44:47.147Z,40.09
2019-06-01T14:45:47.361Z,38.82
2019-06-01T14:47:39.652Z,39.70
2019-06-01T14:48:39.683Z,40.09
2019-06-01T14:50:32.852Z,39.31
2019-06-01T14:51:32.623Z,38.51
2019-06-01T14:53:25.554Z,40.37
2019-06-01T14:54:25.572Z,39.61
2019-06-01T14:56:18.522Z,38.04
2019-06-01T14:57:18.526Z,38.51
2019-06-01T14:59:11.467Z,39.70
2019-06-01T15:00:11.479Z,39.12
2019-06-01T15:02:04.420Z,39.69
2019-06-01T15:03:04.433Z,39.00
2019-06-01T15:04:58.637Z,39.88
2019-06-01T15:05:58.613Z,40.48
2019-06-01T15:07:50.403Z,39.78
2019-06-01T15:09:07.689Z,40.66
2019-06-01T15:10:43.322Z,41.93
2019-06-01T15:11:43.338Z,40.47
2019-06-01T15:13:36.266Z,39.88
2019-06-01T15:14:36.289Z,41.15
2019-06-01T15:16:29.226Z,39.29
2019-06-01T15:17:29.245Z,39.29
2019-06-01T15:19:22.195Z,40.95
2019-06-01T15:20:22.197Z,40.66
2019-06-01T15:22:15.138Z,42.12
2019-06-01T15:23:15.151Z,42.24
2019-06-01T15:25:08.088Z,42.14
2019-06-01T15:26:08.106Z,41.56
2019-06-01T15:28:01.039Z,40.88
2019-06-01T15:29:01.063Z,40.88
2019-06-01T15:30:54.854Z,39.92
2019-06-01T15:31:54.008Z,40.41
2019-06-01T15:33:46.942Z,39.82
2019-06-01T15:34:46.963Z,40.41
2019-06-01T15:36:39.897Z,40.01
2019-06-01T15:37:39.916Z,40.92
2019-06-01T15:39:32.845Z,40.23
2019-06-01T15:40:32.871Z,38.48
2019-06-01T15:42:25.805Z,38.38
2019-06-01T15:43:25.824Z,38.48
2019-06-01T15:45:18.757Z,38.96
2019-06-01T15:46:18.775Z,38.96
2019-06-01T15:48:11.705Z,39.26
2019-06-01T15:49:11.730Z,39.94
2019-06-01T15:51:07.130Z,37.99
2019-06-01T15:52:04.684Z,38.87
2019-06-01T15:53:58.952Z,38.67
2019-06-01T15:54:58.334Z,36.52
2019-06-01T15:56:50.575Z,35.74
2019-06-01T15:57:50.587Z,35.45
2019-06-01T15:59:43.521Z,35.33
2019-06-01T16:00:43.547Z,36.51
2019-06-01T16:02:36.477Z,36.68
2019-06-01T16:03:36.494Z,36.58
2019-06-01T16:05:29.927Z,36.78
2019-06-01T16:06:29.971Z,37.07
2019-06-01T16:08:22.875Z,36.49
2019-06-01T16:09:22.898Z,37.07
2019-06-01T16:11:15.832Z,36.68
2019-06-01T16:12:15.849Z,37.63
2019-06-01T16:14:08.778Z,37.73
2019-06-01T16:15:08.801Z,37.13
2019-06-01T16:17:02.897Z,37.52
2019-06-01T16:18:02.084Z,37.52
2019-06-01T16:19:55.883Z,38.02
2019-06-01T16:20:55.931Z,38.42
2019-06-01T16:22:47.648Z,37.73
2019-06-01T16:23:50.270Z,38.51
2019-06-01T16:25:40.603Z,39.29
2019-06-01T16:26:40.619Z,38.02
2019-06-01T16:28:33.551Z,38.14
2019-06-01T16:29:33.572Z,37.95
2019-06-01T16:31:26.511Z,36.37
2019-06-01T16:32:26.525Z,37.45
2019-06-01T16:34:19.462Z,38.53
2019-06-01T16:35:19.481Z,38.24
2019-06-01T16:37:12.420Z,38.24
2019-06-01T16:38:12.435Z,37.37
2019-06-01T16:40:09.953Z,35.80
2019-06-01T16:41:05.599Z,36.39
2019-06-01T16:42:59.328Z,37.07
2019-06-01T16:43:59.455Z,36.78
2019-06-01T16:45:51.281Z,37.07
2019-06-01T16:46:51.295Z,37.54
2019-06-01T16:48:44.261Z,37.55
2019-06-01T16:49:44.263Z,37.37
2019-06-01T16:51:38.195Z,36.74
2019-06-01T16:52:38.290Z,37.54
2019-06-01T16:54:31.207Z,38.01
2019-06-01T16:55:31.623Z,38.02
2019-06-01T16:57:24.162Z,38.02
2019-06-01T16:58:24.180Z,37.62
2019-06-01T17:00:17.135Z,38.02
2019-06-01T17:01:17.137Z,37.52
2019-06-01T17:03:11.304Z,37.52
2019-06-01T17:04:10.091Z,38.10
2019-06-01T17:06:03.033Z,38.40
2019-06-01T17:07:05.631Z,37.23
2019-06-01T17:08:56.641Z,37.91
2019-06-01T17:09:56.629Z,38.22
2019-06-01T17:11:49.104Z,37.45
2019-06-01T17:12:49.123Z,37.83
2019-06-01T17:14:42.109Z,37.04
2019-06-01T17:15:42.180Z,37.23
2019-06-01T17:17:35.012Z,37.71
2019-06-01T17:18:35.032Z,37.71
2019-06-01T17:20:27.984Z,37.83
2019-06-01T17:21:27.984Z,37.25
2019-06-01T17:23:26.848Z,37.54
2019-06-01T17:24:20.939Z,38.04
2019-06-01T17:26:13.874Z,37.15
2019-06-01T17:27:13.892Z,37.83
2019-06-01T17:29:06.835Z,37.45
2019-06-01T17:30:09.953Z,38.22
2019-06-01T17:32:17.394Z,38.61
2019-06-01T17:33:00.276Z,38.12
2019-06-01T17:34:52.729Z,37.83
2019-06-01T17:35:52.752Z,38.22
2019-06-01T17:37:45.695Z,38.42
2019-06-01T17:38:45.710Z,38.51
2019-06-01T17:40:42.313Z,37.45
2019-06-01T17:41:38.667Z,37.83
2019-06-01T17:43:31.604Z,37.15
2019-06-01T17:44:31.617Z,36.68
2019-06-01T17:46:24.556Z,36.58
2019-06-01T17:47:27.239Z,37.17
2019-06-01T17:49:17.505Z,36.58
2019-06-01T17:50:18.313Z,36.90
2019-06-01T17:52:11.786Z,36.31
2019-06-01T17:53:10.483Z,35.94
2019-06-01T17:55:03.416Z,36.13
2019-06-01T17:56:03.947Z,35.24
2019-06-01T17:57:57.371Z,36.33
2019-06-01T17:58:57.387Z,35.64
2019-06-01T18:00:50.352Z,35.07
2019-06-01T18:01:50.347Z,34.97
2019-06-01T18:03:43.289Z,34.68
2019-06-01T18:04:43.312Z,34.60
2019-06-01T18:06:36.759Z,34.21
2019-06-01T18:07:36.778Z,34.11
2019-06-01T18:09:29.732Z,34.60
2019-06-01T18:10:29.735Z,34.78
2019-06-01T18:12:22.675Z,35.85
2019-06-01T18:13:22.693Z,36.05
2019-06-01T18:15:15.628Z,36.15
2019-06-01T18:16:15.652Z,36.33
2019-06-01T18:18:08.830Z,36.82
2019-06-01T18:19:08.611Z,37.09
2019-06-01T18:21:02.251Z,36.68
2019-06-01T18:22:02.594Z,37.27
2019-06-01T18:23:54.503Z,37.54
2019-06-01T18:24:54.526Z,38.12
2019-06-01T18:26:47.463Z,38.69
2019-06-01T18:27:47.482Z,39.28
2019-06-01T18:29:48.084Z,39.55
2019-06-01T18:30:40.436Z,39.16
2019-06-01T18:32:33.372Z,39.26
2019-06-01T18:33:33.391Z,39.75